Skip to Main Content

Video Notice

If you see just a black screen when trying to view Live Traffic cameras, please click inside the window to get video to play. An update to certain browsers is not allowing the video to auto-play when the window opens. 

SEARCH:
Location Air RH Dwp Precip Type Wind Speed Wind Gust Direction Pavement Temperature Date/Time
Hatem Bridge US 40 E/B 73 80 66 None Calm Calm E 76 - 76 8/20/2018 8:16:00 PM
I-270 at I-370 73 84 69 None Calm Calm NE 80 - 83 8/20/2018 8:15:00 PM
I-270 at MD-109 72 93 70 None Calm Calm E 78 - 79 8/20/2018 8:15:00 PM
I-495 at American Legion Bridge 76 80 69 None Calm 5 mph SE 83 - 84 8/20/2018 8:15:00 PM
I-68 at Savage Mt 64 100 64 None 5 mph 9 mph SE 69 - 69 8/20/2018 8:15:00 PM
I-68 at Sideling Hill 70 100 70 None Calm 5 mph S 79 - 80 8/20/2018 8:15:00 PM
I-68 at US 219 65 100 65 None 8 mph 14 mph SE 69 - 73 8/20/2018 8:15:00 PM
I-68 at WV Line 70 81 65 None Calm 7 mph N 80 - 80 8/20/2018 8:15:00 PM
I-695 at I-83 72 83 67 None Calm 9 mph NE 77 - 79 8/20/2018 8:15:00 PM
I-695 on FSK Bridge 73 86 69 None - - No Data Available 74 - 74 8/20/2018 8:17:00 PM
I-70 at Fred-Wash Co. 68 100 68 None Calm 4 mph SE 74 - 76 8/20/2018 8:15:00 PM
I-70 at I-695 72 84 68 None Calm 9 mph E 77 - 81 8/20/2018 8:15:00 PM
I-70 at I-81 74 90 71 None Calm 4 mph SW - 8/20/2018 8:15:00 PM
I-70 at MD-27 70 97 69 None Calm Calm N 76 - 77 8/20/2018 8:15:00 PM
I-70 at MD-32 71 88 67 None Calm Calm N 79 - 81 8/20/2018 8:15:00 PM
I-83 at MD-137 71 95 70 None Calm 4 mph NE 77 - 77 8/20/2018 8:15:00 PM
I-95 at I-695 NE 73 82 67 None Calm 5 mph E 77 - 81 8/20/2018 8:17:00 PM
I-95 at Patuxent River 74 84 70 None Calm 8 mph NE 80 - 81 8/20/2018 8:15:00 PM
I-95 at Tydings Bridge 73 79 66 None Calm 7 mph NE 78 - 79 8/20/2018 8:15:00 PM
I-95/495 at I-295 77 82 71 None Calm 8 mph E 81 - 81 8/20/2018 8:15:00 PM
I-97 at MD-100 74 82 69 None 5 mph 8 mph E 79 - 81 8/20/2018 8:15:00 PM
I-97 at MD-32 73 85 68 None Calm 7 mph E 79 - 80 8/20/2018 8:15:00 PM
IS 70 W of I-270 - - - No Data Available - - No Data Available 78 - 78 8/20/2018 8:15:00 PM
MD 136 @ MD 646 69 93 67 No Data Available Calm 5 mph SE 80 - 80 8/20/2018 8:15:00 PM
MD 20 at MD 21 72 85 67 None Calm 4 mph NE 84 - 84 8/20/2018 8:15:00 PM
MD 23 at Meadowtree Road 69 92 67 No Data Available Calm Calm N 76 - 76 8/20/2018 8:15:00 PM
MD 231 at Patuxent River 75 87 71 None 4 mph 8 mph E 82 - 85 8/20/2018 8:15:00 PM
MD 24 at Jarrettsville Road 71 89 68 No Data Available Calm Calm E 81 - 81 8/20/2018 8:15:00 PM
MD 260 at Cox Rd 75 86 70 None Calm 9 mph NE 83 - 83 8/20/2018 8:15:00 PM
MD-135 at Salt Dome 64 100 64 None 4 mph 10 mph E 70 - 70 8/20/2018 8:15:00 PM
MD-140 at MD-97 68 97 67 None Calm 7 mph SE 75 - 75 8/20/2018 8:15:00 PM
MD-200 EB at Bonifant Rd - - - No Data Available - - No Data Available -
MD-200 WB at Muncaster Mill Rd 71 87 68 None Calm 4 mph N 78 - 78 8/20/2018 8:16:00 PM
MD-213 at Sassafras River 74 87 70 None Calm 4 mph E 83 - 83 8/20/2018 8:15:00 PM
MD-24 at Rock St Park 71 100 71 None Calm Calm N 74 - 74 8/20/2018 8:15:00 PM
MD-30 at PA Line 67 100 67 None Calm Calm NE 77 - 77 8/20/2018 8:15:00 PM
MD-33 at Knapps Narrows Drawbridge 75 83 69 None 9 mph 17 mph E 89 - 89 8/20/2018 8:15:00 PM
MD-344 at MD-224 74 92 71 None Calm Calm N 88 - 88 8/20/2018 8:15:00 PM
MD-4 at Patuxent River 77 87 73 None 15 mph 19 mph E 82 - 87 8/20/2018 8:16:00 PM
MD-404 at Choptank River 73 81 67 None 6 mph 11 mph SE 80 - 82 8/20/2018 8:15:00 PM
MD-43 at MD-150 74 86 70 None 6 mph 9 mph E 79 - 82 8/20/2018 8:15:00 PM
MD-51 at Oldtown Salt Dome 73 85 68 None 4 mph 7 mph E 81 - 81 8/20/2018 8:15:00 PM
MD-64 at MD-418 71 89 67 None Calm Calm N 81 - 82 8/20/2018 8:15:00 PM
US 301 at MD 305 73 82 67 None 6 mph 10 mph E 83 - 85 8/20/2018 8:15:00 PM
US-1 at Baltimore / Harford Co. Line 71 90 68 None Calm Calm N 77 - 78 8/20/2018 8:15:00 PM
US-1 at Conowingo Dam 71 97 71 None Calm Calm NE 79 - 79 8/20/2018 8:15:00 PM
US-13 at US-113 73 88 70 None Calm 8 mph NE 82 - 83 8/20/2018 8:15:00 PM
US-13 at US-50 72 85 68 None 4 mph 7 mph E 80 - 80 8/20/2018 8:15:00 PM
US-15 at MD-140 70 92 68 None Calm Calm N 77 - 79 8/20/2018 8:15:00 PM
US-301 at MD-5 73 95 72 None Calm 6 mph E 82 - 83 8/20/2018 8:15:00 PM
US-301 at Potomac 77 87 73 None 4 mph 7 mph E 82 - 83 8/20/2018 8:17:00 PM
US-340 at MD-180 72 86 68 None Calm 4 mph SE 80 - 81 8/20/2018 8:15:00 PM
US-50 at Choptank 73 91 71 None Calm 10 mph E 80 - 82 8/20/2018 8:15:00 PM
US-50 at I-95 75 84 70 None Calm 6 mph NE 80 - 84 8/20/2018 8:15:00 PM
US-50 at MD-2 74 91 71 None Calm 8 mph NE 81 - 81 8/20/2018 8:15:00 PM
US-50 at MD-331 74 85 69 None Calm 9 mph E 79 - 82 8/20/2018 8:15:00 PM
US-50 at OC Drawbridge 75 87 71 None 14 mph 18 mph E 82 - 82 8/20/2018 8:15:00 PM
US-50 at Table Rock Rd 65 100 65 None 7 mph 11 mph E 73 - 73 8/20/2018 8:15:00 PM
US-50 Kent Narrow Bridge 75 88 71 None 5 mph 9 mph E 80 - 83 8/20/2018 8:15:00 PM
WPL Pier 31 74 83 68 None 9 mph 15 mph E 79 - 79 8/20/2018 8:16:00 PM
Location Air RH Dwp Precip Type Wind Speed Wind Gust Direction Pavement Temperature Date/Time